createdAt,value
2023-11-11T00:00:48.702Z,86
2023-11-11T00:01:48.613Z,86
2023-11-11T00:02:48.767Z,86
2023-11-11T00:03:48.761Z,86
2023-11-11T00:04:48.687Z,86
2023-11-11T00:05:48.576Z,86
2023-11-11T00:06:48.599Z,86
2023-11-11T00:07:48.633Z,86
2023-11-11T00:08:48.575Z,86
2023-11-11T00:09:48.605Z,86
2023-11-11T00:10:48.595Z,86
2023-11-11T00:11:48.580Z,86
2023-11-11T00:12:48.599Z,86
2023-11-11T00:13:48.595Z,86
2023-11-11T00:14:48.576Z,86
2023-11-11T00:15:48.590Z,86
2023-11-11T00:16:48.607Z,86
2023-11-11T00:17:48.642Z,86.3
2023-11-11T00:18:48.639Z,86.3
2023-11-11T00:19:48.648Z,86.3
2023-11-11T00:20:48.652Z,86.3
2023-11-11T00:21:50.107Z,86.3
2023-11-11T00:22:48.604Z,86.3
2023-11-11T00:23:48.602Z,86.3
2023-11-11T00:24:48.613Z,86.2
2023-11-11T00:25:48.620Z,86.2
2023-11-11T00:26:48.642Z,86.2
2023-11-11T00:27:48.633Z,86.2
2023-11-11T00:28:48.623Z,86.2
2023-11-11T00:29:48.609Z,86.2
2023-11-11T00:30:48.847Z,86.2
2023-11-11T00:31:48.818Z,86.2
2023-11-11T00:32:48.687Z,86.2
2023-11-11T00:33:48.673Z,86.2
2023-11-11T00:34:48.622Z,86.2
2023-11-11T00:35:48.684Z,86.2
2023-11-11T00:36:48.660Z,86.2
2023-11-11T00:37:48.650Z,86.2
2023-11-11T00:38:48.641Z,86.2
2023-11-11T00:39:48.625Z,86.2
2023-11-11T00:40:48.723Z,86.2
2023-11-11T00:41:48.647Z,86.2
2023-11-11T00:42:48.669Z,86.2
2023-11-11T00:43:48.646Z,86.2
2023-11-11T00:44:48.647Z,86.2
2023-11-11T00:45:48.638Z,86.2
2023-11-11T00:46:48.708Z,86.2
2023-11-11T00:47:48.693Z,86.2
2023-11-11T00:48:48.705Z,86.2
2023-11-11T00:49:48.643Z,86.2
2023-11-11T00:50:48.637Z,86.2
2023-11-11T00:51:48.640Z,86.2
2023-11-11T00:52:48.626Z,86.2
2023-11-11T00:53:48.676Z,86.2
2023-11-11T00:54:48.711Z,86.2
2023-11-11T00:55:48.651Z,86.2
2023-11-11T00:56:48.662Z,86.2
2023-11-11T00:57:48.664Z,86.2
2023-11-11T00:58:48.649Z,86.2
2023-11-11T00:59:48.691Z,86.2
2023-11-11T01:00:48.695Z,86.2
2023-11-11T01:01:48.684Z,86.2
2023-11-11T01:02:48.692Z,86.2
2023-11-11T01:03:48.727Z,86.2
2023-11-11T01:04:48.666Z,86.2
2023-11-11T01:05:48.687Z,86.2
2023-11-11T01:06:48.657Z,86.2
2023-11-11T01:07:48.706Z,86.2
2023-11-11T01:08:48.665Z,86.2
2023-11-11T01:09:48.669Z,86.2
2023-11-11T01:10:48.711Z,87.1
2023-11-11T01:11:48.730Z,87.1
2023-11-11T01:12:48.667Z,87.1
2023-11-11T01:13:48.666Z,87.1
2023-11-11T01:14:48.665Z,87.1
2023-11-11T01:15:48.729Z,87.1
2023-11-11T01:16:48.747Z,87.1
2023-11-11T01:17:48.803Z,87.1
2023-11-11T01:18:48.767Z,87.2
2023-11-11T01:19:48.702Z,87.2
2023-11-11T01:20:48.718Z,87.2
2023-11-11T01:21:48.746Z,87.2
2023-11-11T01:22:48.677Z,87.2
2023-11-11T01:23:48.692Z,87.2
2023-11-11T01:24:48.679Z,87.2
2023-11-11T01:25:48.685Z,87.2
2023-11-11T01:26:48.680Z,87.2
2023-11-11T01:27:48.699Z,87.2
2023-11-11T01:28:48.745Z,87.2
2023-11-11T01:29:48.791Z,87.2
2023-11-11T01:30:48.755Z,87.3
2023-11-11T01:31:48.671Z,87.3
2023-11-11T01:32:48.744Z,87.3
2023-11-11T01:33:48.681Z,87.3
2023-11-11T01:34:48.716Z,87.3
2023-11-11T01:35:48.730Z,87.3
2023-11-11T01:36:48.693Z,87.3
2023-11-11T01:37:48.687Z,87.3
2023-11-11T01:38:48.705Z,87.3
2023-11-11T01:39:48.708Z,87.3
2023-11-11T01:40:48.736Z,87.3
2023-11-11T01:41:48.696Z,87.3
2023-11-11T01:42:48.689Z,87.3
2023-11-11T01:43:48.718Z,87.3
2023-11-11T01:44:48.705Z,87.3
2023-11-11T01:45:48.743Z,87.3
2023-11-11T01:46:48.933Z,87.3
2023-11-11T01:47:48.805Z,87.3
2023-11-11T01:48:48.841Z,87.3
2023-11-11T01:49:48.707Z,87.3
2023-11-11T01:50:48.698Z,87.3
2023-11-11T01:51:48.699Z,87.3
2023-11-11T01:52:48.728Z,87.3
2023-11-11T01:53:48.715Z,87.3
2023-11-11T01:54:48.716Z,87.3
2023-11-11T01:55:48.710Z,87.3
2023-11-11T01:56:48.761Z,87.3
2023-11-11T01:57:48.771Z,87.3
2023-11-11T01:58:48.735Z,87.3
2023-11-11T01:59:48.721Z,87.3
2023-11-11T02:00:48.827Z,87.3
2023-11-11T02:01:48.772Z,87.3
2023-11-11T02:02:48.818Z,87.3
2023-11-11T02:03:48.939Z,87.3
2023-11-11T02:04:48.891Z,87.3
2023-11-11T02:05:48.744Z,87.3
2023-11-11T02:06:48.786Z,87.3
2023-11-11T02:07:48.727Z,87.3
2023-11-11T02:08:48.724Z,87.3
2023-11-11T02:09:48.775Z,87.3
2023-11-11T02:10:48.720Z,87.3
2023-11-11T02:11:48.723Z,87.3
2023-11-11T02:12:48.727Z,87.3
2023-11-11T02:13:48.729Z,87.3
2023-11-11T02:14:48.714Z,87.3
2023-11-11T02:15:48.775Z,86.9
2023-11-11T02:16:48.733Z,86.9
2023-11-11T02:17:48.808Z,86.9
2023-11-11T02:18:48.797Z,86.9
2023-11-11T02:19:48.739Z,86.9
2023-11-11T02:20:48.745Z,86.9
2023-11-11T02:21:48.903Z,86.9
2023-11-11T02:22:48.771Z,86.9
2023-11-11T02:23:48.748Z,86.9
2023-11-11T02:24:48.747Z,86.9
2023-11-11T02:25:48.775Z,86.9
2023-11-11T02:26:48.793Z,86.9
2023-11-11T02:27:48.770Z,86.9
2023-11-11T02:28:48.748Z,86.9
2023-11-11T02:29:48.743Z,86.9
2023-11-11T02:30:48.835Z,86.9
2023-11-11T02:31:48.749Z,86.9
2023-11-11T02:32:48.835Z,86.9
2023-11-11T02:33:48.780Z,86.9
2023-11-11T02:34:48.767Z,86.9
2023-11-11T02:35:48.763Z,86.9
2023-11-11T02:36:58.174Z,86.9
2023-11-11T02:37:48.781Z,86.9
2023-11-11T02:38:48.774Z,86.9
2023-11-11T02:39:48.820Z,86.9
2023-11-11T02:40:48.777Z,86.9
2023-11-11T02:41:52.431Z,86.9
2023-11-11T02:42:48.810Z,86.9
2023-11-11T02:43:48.857Z,86.9
2023-11-11T02:44:48.771Z,87.2
2023-11-11T02:45:48.858Z,87.2
2023-11-11T02:46:48.788Z,87.2
2023-11-11T02:47:48.819Z,87.2
2023-11-11T02:48:48.871Z,87.2
2023-11-11T02:49:48.811Z,87.2
2023-11-11T02:50:48.830Z,86.7
2023-11-11T02:51:48.770Z,86.7
2023-11-11T02:52:48.785Z,86.7
2023-11-11T02:53:48.784Z,86.7
2023-11-11T02:54:48.820Z,86.7
2023-11-11T02:55:48.807Z,86.7
2023-11-11T02:56:48.785Z,86.7
2023-11-11T02:57:48.841Z,86.7
2023-11-11T02:58:48.774Z,86.7
2023-11-11T02:59:48.790Z,86.7
2023-11-11T03:00:48.860Z,86.7
2023-11-11T03:01:48.805Z,86.7
2023-11-11T03:02:48.902Z,86.7
2023-11-11T03:03:48.847Z,86.7
2023-11-11T03:04:48.793Z,86.7
2023-11-11T03:05:48.783Z,87.1
2023-11-11T03:06:48.836Z,87.1
2023-11-11T03:07:48.786Z,87.1
2023-11-11T03:08:48.841Z,87.1
2023-11-11T03:09:48.814Z,87.1
2023-11-11T03:10:48.843Z,87.1
2023-11-11T03:11:48.793Z,87.1
2023-11-11T03:12:48.984Z,87.1
2023-11-11T03:13:48.819Z,87.1
2023-11-11T03:14:48.797Z,87.1
2023-11-11T03:15:48.941Z,87.1
2023-11-11T03:16:48.860Z,87.1
2023-11-11T03:17:48.842Z,87.1
2023-11-11T03:18:49.424Z,86.6
2023-11-11T03:19:48.815Z,86.6
2023-11-11T03:20:48.814Z,86.6
2023-11-11T03:21:48.831Z,86.6
2023-11-11T03:22:48.863Z,86.6
2023-11-11T03:23:48.826Z,86.6
2023-11-11T03:24:48.837Z,86.6
2023-11-11T03:25:48.812Z,86.6
2023-11-11T03:26:48.867Z,86.6
2023-11-11T03:27:48.873Z,86.6
2023-11-11T03:28:48.833Z,86.6
2023-11-11T03:29:48.822Z,86.6
2023-11-11T03:30:48.939Z,86.6
2023-11-11T03:31:48.859Z,86.6
2023-11-11T03:32:48.917Z,86.6
2023-11-11T03:33:48.922Z,86.6
2023-11-11T03:34:48.836Z,86.6
2023-11-11T03:35:48.844Z,86.6
2023-11-11T03:36:48.981Z,86.6
2023-11-11T03:37:48.859Z,86.6
2023-11-11T03:38:48.820Z,86.6
2023-11-11T03:39:48.986Z,86.6
2023-11-11T03:40:48.847Z,86.6
2023-11-11T03:41:48.869Z,86.6
2023-11-11T03:42:48.981Z,86.6
2023-11-11T03:43:48.862Z,86.6
2023-11-11T03:44:48.869Z,86.6
2023-11-11T03:45:48.886Z,86.6
2023-11-11T03:46:48.873Z,86.6
2023-11-11T03:47:48.935Z,86.6
2023-11-11T03:48:48.921Z,86.6
2023-11-11T03:49:48.850Z,86.6
2023-11-11T03:50:48.869Z,86.6
2023-11-11T03:51:48.976Z,86.6
2023-11-11T03:52:48.865Z,86.6
2023-11-11T03:53:48.903Z,86.6
2023-11-11T03:54:48.909Z,86.6
2023-11-11T03:55:48.880Z,86.6
2023-11-11T03:56:48.876Z,86.6
2023-11-11T03:57:48.932Z,86.6
2023-11-11T03:58:48.898Z,86.6
2023-11-11T03:59:48.896Z,86.6
2023-11-11T04:00:48.991Z,86
2023-11-11T04:01:48.919Z,86
2023-11-11T04:02:48.940Z,86
2023-11-11T04:03:49.053Z,86
2023-11-11T04:04:48.873Z,86
2023-11-11T04:05:48.927Z,86
2023-11-11T04:06:48.987Z,86
2023-11-11T04:07:48.879Z,86
2023-11-11T04:08:48.894Z,86
2023-11-11T04:09:48.953Z,85.8
2023-11-11T04:10:48.904Z,85.8
2023-11-11T04:11:48.871Z,85.8
2023-11-11T04:12:49.020Z,85.8
2023-11-11T04:13:48.893Z,85.8
2023-11-11T04:14:48.921Z,85.8
2023-11-11T04:15:48.975Z,85.8
2023-11-11T04:16:48.956Z,85.8
2023-11-11T04:17:48.921Z,85.8
2023-11-11T04:18:49.034Z,85.8
2023-11-11T04:19:48.884Z,85.8
2023-11-11T04:20:48.953Z,85.8
2023-11-11T04:21:48.951Z,85.8
2023-11-11T04:22:48.921Z,85.8
2023-11-11T04:23:48.907Z,85.8
2023-11-11T04:24:48.956Z,85.8
2023-11-11T04:25:48.909Z,85.8
2023-11-11T04:26:48.894Z,85.8
2023-11-11T04:27:49.066Z,85.8
2023-11-11T04:28:48.922Z,85.8
2023-11-11T04:29:48.915Z,85.8
2023-11-11T04:30:48.972Z,85.8
2023-11-11T04:31:48.931Z,85.8
2023-11-11T04:32:48.929Z,85.8
2023-11-11T04:33:49.047Z,85.8
2023-11-11T04:34:48.893Z,85.8
2023-11-11T04:35:48.912Z,85.8
2023-11-11T04:36:49.029Z,85.8
2023-11-11T04:37:48.906Z,85.8
2023-11-11T04:38:48.906Z,85.8
2023-11-11T04:39:48.957Z,85.8
2023-11-11T04:40:48.914Z,85.8
2023-11-11T04:41:48.921Z,85.8
2023-11-11T04:42:49.041Z,85.8
2023-11-11T04:43:48.932Z,85.8
2023-11-11T04:44:48.926Z,85.8
2023-11-11T04:45:49.014Z,85.8
2023-11-11T04:46:49.053Z,85.8
2023-11-11T04:47:49.033Z,85.8
2023-11-11T04:48:49.017Z,85.8
2023-11-11T04:49:48.946Z,85.8
2023-11-11T04:50:48.952Z,85.8
2023-11-11T04:51:49.001Z,85.8
2023-11-11T04:52:48.935Z,85.8
2023-11-11T04:53:48.977Z,86.2
2023-11-11T04:54:48.982Z,86.2
2023-11-11T04:55:48.948Z,86.2
2023-11-11T04:56:48.933Z,86.2
2023-11-11T04:57:49.047Z,86.2
2023-11-11T04:58:48.931Z,86.2
2023-11-11T04:59:49.009Z,86.2
2023-11-11T05:00:49.026Z,86.2
2023-11-11T05:01:48.998Z,86.2
2023-11-11T05:02:48.975Z,86.2
2023-11-11T05:03:49.021Z,86.2
2023-11-11T05:04:48.951Z,86.2
2023-11-11T05:05:48.985Z,86.2
2023-11-11T05:06:49.086Z,86.2
2023-11-11T05:07:48.937Z,86.2
2023-11-11T05:08:48.961Z,86.2
2023-11-11T05:09:49.031Z,86.2
2023-11-11T05:10:48.960Z,86.2
2023-11-11T05:11:48.956Z,86.2
2023-11-11T05:12:49.026Z,86.2
2023-11-11T05:13:48.950Z,86.2
2023-11-11T05:14:48.943Z,86.2
2023-11-11T05:15:49.097Z,86.2
2023-11-11T05:16:49.066Z,86.2
2023-11-11T05:17:49.079Z,86.2
2023-11-11T05:18:50.695Z,86.2
2023-11-11T05:19:48.973Z,86.2
2023-11-11T05:20:48.944Z,86.2
2023-11-11T05:21:49.073Z,86.2
2023-11-11T05:22:48.980Z,86.2
2023-11-11T05:23:48.948Z,86.2
2023-11-11T05:24:49.040Z,86.2
2023-11-11T05:25:48.958Z,86.2
2023-11-11T05:26:49.013Z,86.2
2023-11-11T05:27:49.000Z,86.2
2023-11-11T05:28:48.985Z,86.2
2023-11-11T05:29:48.982Z,86.2
2023-11-11T05:30:49.027Z,86.2
2023-11-11T05:31:48.979Z,86.2
2023-11-11T05:32:48.992Z,86.2
2023-11-11T05:33:49.007Z,86.2
2023-11-11T05:34:48.986Z,86.2
2023-11-11T05:35:49.023Z,86.2
2023-11-11T05:36:49.052Z,86.2
2023-11-11T05:37:48.983Z,86.2
2023-11-11T05:38:48.993Z,86.2
2023-11-11T05:39:49.004Z,86.2
2023-11-11T05:40:48.962Z,86.2
2023-11-11T05:41:49.020Z,86.2
2023-11-11T05:42:49.085Z,86.2
2023-11-11T05:43:49.002Z,86.2
2023-11-11T05:44:48.976Z,86.2
2023-11-11T05:45:49.095Z,86.2
2023-11-11T05:46:49.001Z,86.2
2023-11-11T05:47:49.033Z,86.3
2023-11-11T05:48:49.089Z,86.3
2023-11-11T05:49:48.988Z,86.3
2023-11-11T05:50:49.024Z,86.3
2023-11-11T05:51:49.043Z,86.3
2023-11-11T05:52:49.003Z,86.3
2023-11-11T05:53:49.009Z,86.3
2023-11-11T05:54:49.045Z,86.3
2023-11-11T05:55:49.025Z,86.3
2023-11-11T05:56:49.032Z,86.3
2023-11-11T05:57:49.148Z,86.3
2023-11-11T05:58:48.998Z,86.3
2023-11-11T05:59:49.009Z,86.3
2023-11-11T06:00:49.162Z,86.3
2023-11-11T06:01:49.046Z,86.3
2023-11-11T06:02:49.065Z,86.3
2023-11-11T06:03:49.105Z,86.3
2023-11-11T06:04:49.055Z,86.3
2023-11-11T06:05:49.003Z,86.3
2023-11-11T06:06:49.082Z,86.3
2023-11-11T06:07:49.009Z,86.3
2023-11-11T06:08:49.013Z,86.3
2023-11-11T06:09:49.024Z,86.3
2023-11-11T06:10:49.018Z,86.3
2023-11-11T06:11:49.027Z,86.3
2023-11-11T06:12:49.169Z,86.3
2023-11-11T06:13:49.017Z,86.3
2023-11-11T06:14:49.039Z,86.3
2023-11-11T06:15:49.117Z,86.3
2023-11-11T06:16:49.128Z,86.3
2023-11-11T06:17:49.073Z,86.3
2023-11-11T06:18:49.082Z,86.3
2023-11-11T06:19:49.056Z,86.3
2023-11-11T06:20:49.064Z,86.3
2023-11-11T06:21:49.339Z,86.3
2023-11-11T06:23:45.415Z,86.3
2023-11-11T06:23:49.027Z,86.3
2023-11-11T06:24:49.095Z,86.3
2023-11-11T06:25:49.023Z,86.3
2023-11-11T06:26:49.089Z,86.3
2023-11-11T06:27:49.043Z,86.3
2023-11-11T06:28:49.028Z,86.3
2023-11-11T06:29:49.042Z,86.3
2023-11-11T06:30:49.115Z,86.3
2023-11-11T06:31:49.039Z,86.3
2023-11-11T06:32:49.181Z,86.3
2023-11-11T06:33:49.204Z,86.3
2023-11-11T06:34:49.035Z,86.3
2023-11-11T06:35:49.040Z,86.3
2023-11-11T06:36:49.085Z,86.3
2023-11-11T06:37:49.098Z,86.3
2023-11-11T06:38:49.062Z,86.3
2023-11-11T06:39:49.072Z,86.3
2023-11-11T06:40:49.057Z,86.3
2023-11-11T06:41:49.068Z,86.7
2023-11-11T06:42:49.185Z,86.7
2023-11-11T06:43:49.105Z,86.7
2023-11-11T06:44:49.081Z,86.7
2023-11-11T06:45:49.238Z,86.7
2023-11-11T06:46:49.050Z,86.7
2023-11-11T06:47:49.075Z,86.7
2023-11-11T06:48:49.130Z,86.7
2023-11-11T06:49:49.059Z,86.7
2023-11-11T06:50:49.058Z,86.7
2023-11-11T06:51:49.140Z,86.7
2023-11-11T06:52:49.070Z,86.7
2023-11-11T06:53:49.290Z,86.7
2023-11-11T06:54:49.126Z,86.7
2023-11-11T06:55:49.069Z,86.7
2023-11-11T06:56:49.078Z,86.7
2023-11-11T06:57:49.206Z,86.7
2023-11-11T06:58:49.082Z,87.2
2023-11-11T06:59:49.133Z,87.2
2023-11-11T07:00:49.149Z,87.2
2023-11-11T07:01:49.126Z,87.2
2023-11-11T07:02:49.193Z,87.2
2023-11-11T07:03:49.142Z,87.2
2023-11-11T07:04:49.091Z,87.2
2023-11-11T07:05:49.126Z,87.2
2023-11-11T07:06:49.122Z,87.2
2023-11-11T07:07:49.073Z,87.2
2023-11-11T07:08:49.096Z,87.2
2023-11-11T07:09:49.140Z,87.2
2023-11-11T07:10:49.116Z,87.2
2023-11-11T07:11:49.094Z,87.2
2023-11-11T07:12:49.127Z,87.2
2023-11-11T07:13:49.091Z,87.2
2023-11-11T07:14:49.107Z,87.2
2023-11-11T07:15:49.277Z,87.2
2023-11-11T07:17:49.138Z,87.2
2023-11-11T07:18:49.165Z,87.2
2023-11-11T07:19:49.094Z,86.8
2023-11-11T07:20:49.105Z,86.8
2023-11-11T07:22:25.309Z,86.8
2023-11-11T07:22:49.097Z,86.8
2023-11-11T07:23:49.112Z,86.8
2023-11-11T07:24:49.120Z,86.8
2023-11-11T07:25:49.124Z,86.8
2023-11-11T07:26:49.144Z,86.8
2023-11-11T07:27:49.127Z,86.8
2023-11-11T07:28:49.119Z,86.8
2023-11-11T07:29:49.106Z,86.8
2023-11-11T07:30:49.204Z,86.8
2023-11-11T07:31:49.104Z,86.8
2023-11-11T07:32:57.178Z,86.8
2023-11-11T07:33:49.166Z,86.8
2023-11-11T07:34:49.129Z,86.8
2023-11-11T07:35:49.116Z,86.8
2023-11-11T07:36:49.172Z,86.8
2023-11-11T07:37:49.122Z,86.9
2023-11-11T07:38:49.188Z,86.9
2023-11-11T07:39:49.178Z,86.9
2023-11-11T07:40:49.162Z,86.9
2023-11-11T07:41:49.120Z,86.9
2023-11-11T07:42:49.252Z,86.9
2023-11-11T07:43:49.131Z,86.9
2023-11-11T07:44:49.135Z,86.9
2023-11-11T07:45:49.243Z,86.9
2023-11-11T07:46:49.131Z,86.9
2023-11-11T07:47:49.168Z,86.9
2023-11-11T07:48:49.259Z,86.9
2023-11-11T07:49:49.149Z,86.9
2023-11-11T07:50:49.146Z,86.9
2023-11-11T07:51:49.254Z,86.9
2023-11-11T07:52:49.140Z,86.9
2023-11-11T07:53:49.137Z,86.9
2023-11-11T07:54:49.226Z,86.9
2023-11-11T07:55:49.154Z,86.5
2023-11-11T07:56:49.206Z,86.5
2023-11-11T07:58:49.225Z,86.5
2023-11-11T07:59:49.163Z,86.5
2023-11-11T08:00:49.218Z,86.5
2023-11-11T08:01:49.223Z,86.5
2023-11-11T08:02:49.560Z,86.5
2023-11-11T08:03:49.313Z,86.5
2023-11-11T08:04:49.207Z,86.5
2023-11-11T08:05:49.155Z,86.5
2023-11-11T08:06:49.240Z,86.5
2023-11-11T08:07:49.168Z,86.5
2023-11-11T08:08:49.153Z,86.5
2023-11-11T08:09:49.187Z,86.5
2023-11-11T08:10:49.197Z,86.5
2023-11-11T08:11:49.166Z,86.5
2023-11-11T08:12:49.171Z,86.5
2023-11-11T08:13:49.173Z,86.5
2023-11-11T08:14:49.192Z,86.5
2023-11-11T08:15:49.259Z,86.5
2023-11-11T08:16:49.177Z,86.5
2023-11-11T08:17:49.201Z,86.5
2023-11-11T08:18:49.322Z,86.5
2023-11-11T08:19:49.205Z,86.5
2023-11-11T08:20:49.234Z,86.5
2023-11-11T08:21:49.201Z,86.5
2023-11-11T08:22:49.218Z,86.5
2023-11-11T08:23:49.229Z,86.5
2023-11-11T08:24:49.239Z,86.5
2023-11-11T08:25:49.185Z,86.5
2023-11-11T08:26:49.601Z,86.5
2023-11-11T08:27:49.228Z,86.5
2023-11-11T08:28:49.203Z,86.5
2023-11-11T08:29:49.227Z,86.5
2023-11-11T08:30:49.317Z,86.5
2023-11-11T08:31:49.210Z,86.1
2023-11-11T08:32:49.266Z,86.1
2023-11-11T08:33:49.214Z,86.1
2023-11-11T08:34:49.198Z,86.1
2023-11-11T08:35:49.203Z,86.1
2023-11-11T08:36:53.278Z,86.1
2023-11-11T08:37:49.235Z,86.1
2023-11-11T08:38:50.281Z,86.1
2023-11-11T08:39:49.238Z,86.1
2023-11-11T08:40:49.250Z,86.1
2023-11-11T08:41:49.213Z,86.1
2023-11-11T08:42:49.212Z,86.1
2023-11-11T08:43:49.251Z,86.1
2023-11-11T08:44:49.214Z,86.1
2023-11-11T08:45:49.274Z,86.1
2023-11-11T08:46:49.340Z,86.1
2023-11-11T08:47:49.278Z,86.1
2023-11-11T08:48:49.287Z,86.1
2023-11-11T08:49:49.234Z,86.1
2023-11-11T08:50:49.199Z,85.4
2023-11-11T08:51:49.269Z,85.4
2023-11-11T08:52:49.194Z,85.4
2023-11-11T08:53:49.208Z,85.4
2023-11-11T08:54:49.297Z,85.4
2023-11-11T08:55:49.204Z,85.4
2023-11-11T08:56:49.234Z,85.4
2023-11-11T08:57:49.271Z,85.4
2023-11-11T08:58:49.216Z,85.4
2023-11-11T08:59:49.238Z,85.4
2023-11-11T09:00:49.322Z,85.4
2023-11-11T09:01:49.321Z,85.4
2023-11-11T09:02:49.298Z,85.4
2023-11-11T09:03:49.327Z,85.4
2023-11-11T09:04:49.263Z,85.4
2023-11-11T09:05:49.230Z,85.4
2023-11-11T09:06:49.306Z,85.4
2023-11-11T09:07:49.232Z,85.4
2023-11-11T09:08:49.269Z,85.4
2023-11-11T09:09:49.621Z,85.4
2023-11-11T09:10:49.245Z,85.4
2023-11-11T09:11:49.223Z,85.4
2023-11-11T09:12:49.294Z,85.4
2023-11-11T09:13:49.237Z,85.4
2023-11-11T09:14:49.222Z,85.4
2023-11-11T09:15:49.312Z,85.4
2023-11-11T09:16:49.263Z,85.4
2023-11-11T09:17:49.284Z,85.4
2023-11-11T09:18:49.246Z,84.6
2023-11-11T09:19:49.271Z,84.6
2023-11-11T09:20:49.246Z,84.6
2023-11-11T09:21:49.337Z,84.6
2023-11-11T09:22:49.284Z,84.6
2023-11-11T09:23:49.252Z,84.6
2023-11-11T09:24:49.257Z,84.6
2023-11-11T09:25:49.236Z,84.6
2023-11-11T09:27:49.292Z,84.6
2023-11-11T09:28:49.281Z,84.6
2023-11-11T09:29:49.298Z,84.6
2023-11-11T09:30:49.377Z,84.6
2023-11-11T09:31:49.311Z,84.2
2023-11-11T09:32:49.293Z,84.2
2023-11-11T09:33:49.370Z,84.2
2023-11-11T09:34:49.250Z,84.2
2023-11-11T09:35:49.367Z,84.2
2023-11-11T09:36:49.252Z,84.2
2023-11-11T09:37:49.242Z,84.2
2023-11-11T09:38:49.256Z,84.2
2023-11-11T09:39:49.356Z,84.2
2023-11-11T09:40:49.288Z,84.2
2023-11-11T09:41:49.292Z,84.2
2023-11-11T09:42:49.389Z,84.2
2023-11-11T09:43:49.257Z,84.2
2023-11-11T09:45:49.340Z,84.2
2023-11-11T09:46:49.324Z,84.2
2023-11-11T09:47:49.306Z,84.2
2023-11-11T09:48:49.267Z,84.2
2023-11-11T09:49:49.298Z,84.2
2023-11-11T09:50:49.268Z,84.2
2023-11-11T09:51:49.259Z,84.2
2023-11-11T09:52:49.306Z,84.2
2023-11-11T09:53:49.271Z,84.2
2023-11-11T09:54:49.321Z,84.2
2023-11-11T09:55:49.366Z,84.2
2023-11-11T09:57:49.305Z,84.2
2023-11-11T09:58:49.280Z,84.2
2023-11-11T09:59:49.277Z,84.2
2023-11-11T10:00:49.289Z,84.2
2023-11-11T10:01:49.297Z,83.8
2023-11-11T10:02:49.407Z,83.8
2023-11-11T10:03:49.503Z,83.8
2023-11-11T10:04:49.358Z,83.8
2023-11-11T10:05:49.280Z,83.8
2023-11-11T10:06:49.297Z,83.8
2023-11-11T10:07:49.337Z,83.8
2023-11-11T10:08:49.328Z,83.8
2023-11-11T10:09:49.293Z,83.8
2023-11-11T10:10:49.351Z,83.8
2023-11-11T10:11:49.303Z,83.8
2023-11-11T10:12:49.308Z,83.8
2023-11-11T10:13:49.327Z,83.8
2023-11-11T10:14:49.334Z,83.8
2023-11-11T10:15:49.344Z,83.8
2023-11-11T10:16:49.397Z,83.8
2023-11-11T10:17:49.379Z,83.8
2023-11-11T10:18:49.297Z,83.8
2023-11-11T10:19:56.985Z,83.8
2023-11-11T10:20:49.312Z,83.8
2023-11-11T10:21:49.332Z,83.8
2023-11-11T10:22:49.481Z,83.8
2023-11-11T10:23:49.309Z,83.8
2023-11-11T10:24:49.306Z,83.8
2023-11-11T10:25:49.387Z,83.8
2023-11-11T10:26:49.301Z,83.8
2023-11-11T10:27:49.336Z,84.1
2023-11-11T10:28:49.341Z,84.1
2023-11-11T10:29:49.319Z,84.1
2023-11-11T10:30:49.351Z,84.1
2023-11-11T10:31:49.396Z,84.1
2023-11-11T10:32:49.437Z,84.1
2023-11-11T10:33:49.322Z,84.1
2023-11-11T10:34:49.328Z,84.1
2023-11-11T10:35:49.349Z,84.1
2023-11-11T10:36:49.328Z,84.1
2023-11-11T10:37:50.556Z,84.1
2023-11-11T10:38:49.318Z,84.1
2023-11-11T10:39:49.384Z,84.1
2023-11-11T10:40:49.379Z,84.1
2023-11-11T10:41:49.323Z,84.5
2023-11-11T10:42:49.411Z,84.5
2023-11-11T10:43:49.374Z,84.5
2023-11-11T10:44:49.314Z,84.5
2023-11-11T10:45:49.386Z,84.5
2023-11-11T10:46:49.417Z,84.5
2023-11-11T10:47:49.579Z,84.5
2023-11-11T10:48:49.357Z,84.5
2023-11-11T10:49:49.361Z,84.5
2023-11-11T10:50:49.364Z,84.5
2023-11-11T10:51:49.373Z,84.5
2023-11-11T10:52:49.467Z,84.5
2023-11-11T10:53:49.355Z,84.5
2023-11-11T10:54:49.338Z,84.5
2023-11-11T10:55:49.365Z,84.5
2023-11-11T10:56:49.389Z,84.5
2023-11-11T10:57:49.319Z,84.5
2023-11-11T10:58:49.389Z,84.5
2023-11-11T10:59:49.362Z,84.5
2023-11-11T11:00:49.346Z,84.5
2023-11-11T11:01:49.380Z,84.5
2023-11-11T11:02:49.590Z,84.5
2023-11-11T11:03:49.649Z,84.5
2023-11-11T11:04:49.384Z,84.5
2023-11-11T11:05:49.347Z,84.5
2023-11-11T11:06:49.357Z,84.5
2023-11-11T11:07:49.391Z,84.5
2023-11-11T11:08:49.404Z,86.3
2023-11-11T11:09:49.422Z,86.3
2023-11-11T11:10:49.395Z,86.3
2023-11-11T11:11:49.472Z,86.3
2023-11-11T11:12:49.366Z,86.3
2023-11-11T11:13:49.355Z,86.3
2023-11-11T11:14:49.364Z,86.3
2023-11-11T11:15:49.408Z,86.3
2023-11-11T11:16:49.461Z,86.3
2023-11-11T11:17:49.445Z,86.3
2023-11-11T11:18:49.374Z,86.3
2023-11-11T11:19:49.539Z,86.3
2023-11-11T11:20:49.376Z,86.3
2023-11-11T11:21:49.375Z,86.3
2023-11-11T11:22:49.474Z,86.3
2023-11-11T11:23:49.380Z,86.3
2023-11-11T11:24:49.401Z,86.3
2023-11-11T11:25:49.519Z,86.3
2023-11-11T11:26:49.408Z,86.3
2023-11-11T11:27:49.375Z,87.3
2023-11-11T11:28:49.429Z,87.3
2023-11-11T11:29:49.423Z,87.3
2023-11-11T11:30:49.439Z,87.3
2023-11-11T11:31:49.435Z,87.3
2023-11-11T11:32:49.412Z,87.3
2023-11-11T11:33:49.378Z,87.3
2023-11-11T11:34:49.437Z,87.3
2023-11-11T11:35:49.403Z,87.3
2023-11-11T11:36:49.437Z,87.3
2023-11-11T11:37:49.418Z,87.3
2023-11-11T11:38:49.402Z,87.3
2023-11-11T11:39:49.434Z,87.3
2023-11-11T11:40:49.411Z,87.3
2023-11-11T11:41:49.416Z,87.3
2023-11-11T11:42:49.408Z,87.3
2023-11-11T11:43:49.422Z,87.3
2023-11-11T11:44:49.419Z,87.3
2023-11-11T11:45:49.403Z,87.3
2023-11-11T11:46:49.469Z,87.3
2023-11-11T11:47:49.405Z,87.3
2023-11-11T11:48:49.432Z,87.3
2023-11-11T11:49:49.532Z,87.3
2023-11-11T11:50:49.409Z,87.3
2023-11-11T11:51:49.417Z,87.3
2023-11-11T11:52:49.407Z,87.3
2023-11-11T11:53:49.465Z,87.3
2023-11-11T11:54:49.406Z,87.3
2023-11-11T11:55:49.490Z,87.3
2023-11-11T11:56:49.451Z,87.3
2023-11-11T11:57:49.404Z,87.3
2023-11-11T11:58:49.479Z,87.3
2023-11-11T11:59:49.471Z,87.3
2023-11-11T12:00:49.424Z,87.3
2023-11-11T12:01:49.467Z,87.3
2023-11-11T12:02:49.631Z,87.3
2023-11-11T12:03:49.496Z,87.3
2023-11-11T12:04:49.501Z,87.3
2023-11-11T12:05:49.469Z,87.3
2023-11-11T12:06:49.423Z,87.3
2023-11-11T12:07:49.446Z,87.3
2023-11-11T12:08:49.465Z,87.3
2023-11-11T12:09:49.433Z,87.3
2023-11-11T12:10:49.537Z,87.3
2023-11-11T12:11:49.548Z,87.3
2023-11-11T12:12:49.452Z,87.3
2023-11-11T12:13:49.495Z,87.3
2023-11-11T12:14:49.427Z,87.3
2023-11-11T12:15:49.465Z,87.3
2023-11-11T12:16:49.649Z,87.3
2023-11-11T12:17:49.555Z,87.3
2023-11-11T12:18:49.448Z,88.3
2023-11-11T12:19:49.473Z,88.3
2023-11-11T12:20:49.489Z,88.3
2023-11-11T12:21:49.456Z,88.3
2023-11-11T12:22:49.683Z,88.3
2023-11-11T12:23:49.446Z,88.3
2023-11-11T12:24:49.444Z,88.3
2023-11-11T12:25:49.597Z,87.8
2023-11-11T12:26:49.476Z,87.8
2023-11-11T12:27:49.481Z,87.5
2023-11-11T12:28:49.527Z,87.5
2023-11-11T12:29:49.451Z,87.5
2023-11-11T12:30:49.466Z,87.5
2023-11-11T12:31:49.510Z,87.5
2023-11-11T12:32:49.457Z,87.5
2023-11-11T12:33:49.469Z,87.5
2023-11-11T12:34:49.471Z,87.5
2023-11-11T12:35:49.454Z,87.5
2023-11-11T12:36:49.505Z,87.4
2023-11-11T12:37:49.493Z,87.4
2023-11-11T12:38:49.454Z,87.4
2023-11-11T12:39:49.480Z,87.4
2023-11-11T12:40:49.519Z,87.4
2023-11-11T12:41:49.445Z,87.4
2023-11-11T12:42:49.491Z,87.4
2023-11-11T12:43:49.488Z,87.4
2023-11-11T12:44:49.451Z,87.4
2023-11-11T12:45:49.500Z,87.4
2023-11-11T12:46:49.556Z,87.4
2023-11-11T12:47:49.489Z,87.4
2023-11-11T12:48:49.496Z,87.4
2023-11-11T12:49:49.484Z,87.4
2023-11-11T12:50:49.489Z,89.2
2023-11-11T12:51:49.461Z,89.2
2023-11-11T12:52:50.044Z,89.2
2023-11-11T12:53:49.491Z,89.2
2023-11-11T12:54:49.490Z,89.2
2023-11-11T12:55:49.546Z,89.2
2023-11-11T12:56:49.557Z,89.2
2023-11-11T12:57:49.460Z,89.2
2023-11-11T12:58:50.842Z,89.2
2023-11-11T12:59:49.478Z,89.2
2023-11-11T13:00:49.472Z,89.2
2023-11-11T13:01:49.551Z,89.2
2023-11-11T13:02:49.543Z,89.2
2023-11-11T13:03:49.528Z,89.2
2023-11-11T13:04:50.287Z,89.2
2023-11-11T13:05:49.480Z,89.2
2023-11-11T13:06:49.471Z,89.2
2023-11-11T13:07:49.684Z,89.2
2023-11-11T13:08:49.493Z,89.2
2023-11-11T13:09:49.495Z,89.2
2023-11-11T13:10:50.723Z,89.2
2023-11-11T13:11:49.504Z,89.2
2023-11-11T13:12:49.525Z,89.2
2023-11-11T13:13:49.589Z,89.2
2023-11-11T13:14:49.521Z,89.2
2023-11-11T13:15:49.554Z,89.2
2023-11-11T13:16:51.935Z,89.2
2023-11-11T13:17:49.534Z,89.2
2023-11-11T13:18:49.499Z,89.2
2023-11-11T13:19:49.565Z,89.2
2023-11-11T13:20:49.572Z,89.2
2023-11-11T13:21:49.566Z,89.2
2023-11-11T13:22:49.526Z,89.2
2023-11-11T13:23:49.525Z,89.2
2023-11-11T13:24:49.568Z,89.4
2023-11-11T13:25:49.541Z,89.4